Terminal Aerodrome Forecast
Issued by NWS Huntsville, AL

Home | Current Version | Previous Version | Text Only | Print | Product List | Glossary On
Versions: 1 2 3 4 5 6 7 8 9 10 11 12 13 14 15 16 17 18 19 20 21 22 23 24
000
FTUS44 KHUN 210520
TAFHSV
TAF
KHSV 210520Z 2106/2206 30007KT P6SM VCSH OVC050
     FM210800 30009KT P6SM VCSH OVC015
     FM211100 29007KT P6SM OVC025
     FM211400 29011KT P6SM FEW020 BKN050
     FM211800 30015G23KT P6SM BKN050
     FM220100 32007KT P6SM SKC=

USA.gov is the U.S. government's official web portal to all federal, state and local government web resources and services.